createdAt,value
2023-05-12T00:00:57.386Z,23.93
2023-05-12T00:04:58.817Z,23.86
2023-05-12T00:09:00.549Z,23.83
2023-05-12T00:13:02.580Z,23.81
2023-05-12T00:17:06.338Z,23.86
2023-05-12T00:21:08.699Z,23.81
2023-05-12T00:25:10.068Z,23.85
2023-05-12T00:29:11.444Z,23.76
2023-05-12T00:33:12.973Z,24.12
2023-05-12T00:37:14.340Z,23.89
2023-05-12T00:41:16.142Z,23.99
2023-05-12T00:45:17.693Z,24.16
2023-05-12T00:49:20.437Z,24.05
2023-05-12T00:53:21.914Z,24.05
2023-05-12T00:57:27.671Z,24.08
2023-05-12T01:01:30.253Z,24.17
2023-05-12T01:05:39.182Z,24.17
2023-05-12T01:09:40.516Z,24.13
2023-05-12T01:13:41.819Z,24.19
2023-05-12T01:17:48.936Z,24.21
2023-05-12T01:21:50.950Z,24.06
2023-05-12T01:25:52.594Z,23.94
2023-05-12T01:29:57.758Z,24.05
2023-05-12T01:33:59.159Z,23.78
2023-05-12T01:38:01.000Z,23.90
2023-05-12T01:42:05.827Z,23.75
2023-05-12T01:46:07.120Z,23.77
2023-05-12T01:50:09.038Z,23.75
2023-05-12T01:54:10.347Z,23.85
2023-05-12T01:58:11.669Z,23.66
2023-05-12T02:02:12.999Z,23.84
2023-05-12T02:06:16.622Z,23.96
2023-05-12T02:10:18.399Z,24.04
2023-05-12T02:14:20.014Z,24.06
2023-05-12T02:18:21.404Z,24.06
2023-05-12T02:22:22.779Z,23.82
2023-05-12T02:26:24.097Z,24.10
2023-05-12T02:30:25.388Z,24.12
2023-05-12T02:34:26.761Z,24.00
2023-05-12T02:38:28.087Z,23.99
2023-05-12T02:42:35.018Z,23.97
2023-05-12T02:46:37.268Z,24.07
2023-05-12T02:50:38.712Z,24.08
2023-05-12T02:54:40.059Z,23.77
2023-05-12T02:58:41.735Z,23.41
2023-05-12T03:02:43.214Z,23.73
2023-05-12T03:06:44.752Z,22.73
2023-05-12T03:10:49.273Z,23.14
2023-05-12T03:14:51.385Z,23.39
2023-05-12T03:18:52.835Z,22.84
2023-05-12T03:22:54.288Z,21.33
2023-05-12T03:26:55.826Z,21.94
2023-05-12T03:30:57.157Z,21.97
2023-05-12T03:34:58.818Z,21.65
2023-05-12T03:39:00.414Z,23.35
2023-05-12T03:43:01.709Z,22.21
2023-05-12T03:47:03.155Z,22.63
2023-05-12T03:51:04.682Z,22.42
2023-05-12T03:55:06.986Z,22.57
2023-05-12T03:59:08.462Z,23.50
2023-05-12T04:03:09.890Z,23.36
2023-05-12T04:07:11.501Z,23.01
2023-05-12T04:11:13.991Z,23.14
2023-05-12T04:15:15.646Z,23.52
2023-05-12T04:19:17.045Z,23.14
2023-05-12T04:23:18.490Z,23.46
2023-05-12T04:27:19.789Z,22.87
2023-05-12T04:31:21.249Z,23.34
2023-05-12T04:35:22.657Z,23.09
2023-05-12T04:39:23.988Z,22.37
2023-05-12T04:47:29.874Z,23.31
2023-05-12T04:51:32.055Z,23.11
2023-05-12T04:55:33.388Z,23.46
2023-05-12T04:59:35.950Z,22.89
2023-05-12T05:03:37.357Z,23.31
2023-05-12T05:07:38.901Z,23.61
2023-05-12T05:11:40.339Z,23.70
2023-05-12T05:15:49.575Z,23.52
2023-05-12T05:19:58.301Z,23.81
2023-05-12T05:24:00.814Z,23.41
2023-05-12T05:28:03.420Z,23.12
2023-05-12T05:32:05.264Z,24.02
2023-05-12T05:36:06.966Z,23.26
2023-05-12T05:40:09.254Z,23.81
2023-05-12T05:44:10.590Z,23.15
2023-05-12T05:48:12.235Z,23.11
2023-05-12T05:52:13.619Z,23.82
2023-05-12T05:56:14.907Z,23.82
2023-05-12T06:00:16.436Z,23.94
2023-05-12T06:04:17.816Z,23.97
2023-05-12T06:08:19.508Z,24.01
2023-05-12T06:12:20.903Z,24.25
2023-05-12T06:16:23.593Z,24.56
2023-05-12T06:20:36.352Z,23.87
2023-05-12T06:24:37.634Z,24.16
2023-05-12T06:28:39.064Z,24.55
2023-05-12T06:32:40.478Z,24.54
2023-05-12T06:36:41.982Z,25.45
2023-05-12T06:40:43.332Z,25.92
2023-05-12T06:44:45.561Z,26.20
2023-05-12T06:48:47.072Z,25.41
2023-05-12T06:52:48.502Z,25.12
2023-05-12T06:56:50.004Z,26.23
2023-05-12T07:00:51.385Z,26.14
2023-05-12T07:04:52.750Z,26.74
2023-05-12T07:08:55.278Z,26.29
2023-05-12T07:12:56.564Z,25.94
2023-05-12T07:16:57.912Z,27.10
2023-05-12T07:20:59.675Z,26.86
2023-05-12T07:25:01.060Z,26.16
2023-05-12T07:29:03.959Z,26.04
2023-05-12T07:33:05.779Z,26.30
2023-05-12T07:37:07.160Z,26.87
2023-05-12T07:41:08.493Z,26.84
2023-05-12T07:45:10.121Z,26.57
2023-05-12T07:49:11.480Z,25.94
2023-05-12T07:53:12.948Z,25.54
2023-05-12T07:57:14.265Z,25.93
2023-05-12T08:01:15.606Z,25.41
2023-05-12T08:05:17.280Z,25.83
2023-05-12T08:09:18.681Z,24.92
2023-05-12T08:13:20.058Z,26.27
2023-05-12T08:17:21.376Z,25.80
2023-05-12T08:21:22.696Z,27.11
2023-05-12T08:25:24.101Z,28.10
2023-05-12T08:29:25.492Z,27.38
2023-05-12T08:33:27.530Z,27.00
2023-05-12T08:37:29.107Z,27.43
2023-05-12T08:41:44.763Z,26.72
2023-05-12T08:45:47.312Z,27.04
2023-05-12T08:49:59.636Z,27.07
2023-05-12T08:54:03.681Z,27.78
2023-05-12T08:58:05.105Z,28.06
2023-05-12T09:02:08.832Z,28.27
2023-05-12T09:06:11.650Z,28.09
2023-05-12T09:10:32.865Z,28.95
2023-05-12T09:14:37.536Z,29.54
2023-05-12T09:18:55.093Z,29.16
2023-05-12T09:22:58.180Z,28.29
2023-05-12T09:26:59.589Z,29.90
2023-05-12T09:31:01.018Z,27.98
2023-05-12T09:35:06.583Z,28.43
2023-05-12T09:39:09.320Z,29.03
2023-05-12T09:43:12.526Z,29.82
2023-05-12T09:47:15.976Z,30.22
2023-05-12T09:51:21.419Z,29.98
2023-05-12T09:55:22.763Z,30.26
2023-05-12T09:59:28.228Z,30.87
2023-05-12T10:03:30.837Z,28.79
2023-05-12T10:07:33.090Z,30.93
2023-05-12T10:11:35.737Z,30.79
2023-05-12T10:15:37.333Z,34.46
2023-05-12T10:19:41.028Z,34.86
2023-05-12T10:23:44.349Z,33.14
2023-05-12T10:27:47.138Z,33.70
2023-05-12T10:31:49.612Z,33.44
2023-05-12T10:35:52.352Z,33.12
2023-05-12T10:39:53.887Z,35.38
2023-05-12T10:43:55.240Z,35.01
2023-05-12T10:48:06.859Z,35.75
2023-05-12T10:52:11.710Z,34.39
2023-05-12T10:56:13.358Z,30.08
2023-05-12T11:00:15.659Z,26.85
2023-05-12T11:04:19.401Z,28.76
2023-05-12T11:08:23.390Z,28.02
2023-05-12T11:12:29.225Z,27.39
2023-05-12T11:16:30.596Z,27.62
2023-05-12T11:20:32.451Z,28.33
2023-05-12T11:24:34.226Z,28.21
2023-05-12T11:28:42.095Z,31.30
2023-05-12T11:32:43.785Z,31.68
2023-05-12T11:36:45.420Z,32.47
2023-05-12T11:40:47.086Z,32.51
2023-05-12T11:44:49.761Z,34.14
2023-05-12T11:48:58.462Z,34.63
2023-05-12T11:52:59.847Z,32.48
2023-05-12T11:57:01.241Z,35.04
2023-05-12T12:01:11.106Z,34.09
2023-05-12T12:05:21.128Z,35.05
2023-05-12T12:09:37.011Z,33.52
2023-05-12T12:13:38.322Z,32.95
2023-05-12T12:17:40.514Z,33.63
2023-05-12T12:21:42.670Z,32.92
2023-05-12T12:25:44.133Z,33.55
2023-05-12T12:29:45.467Z,32.56
2023-05-12T12:33:46.792Z,33.17
2023-05-12T12:37:51.674Z,32.84
2023-05-12T12:41:53.961Z,33.59
2023-05-12T12:45:55.291Z,33.03
2023-05-12T12:49:56.859Z,32.76
2023-05-12T12:53:58.408Z,32.85
2023-05-12T12:57:59.770Z,33.13
2023-05-12T13:02:02.450Z,33.39
2023-05-12T13:06:03.931Z,31.13
2023-05-12T13:10:05.708Z,28.16
2023-05-12T13:14:08.113Z,29.75
2023-05-12T13:18:10.282Z,29.33
2023-05-12T13:22:11.727Z,29.78
2023-05-12T13:26:13.807Z,29.50
2023-05-12T13:30:15.328Z,29.33
2023-05-12T13:34:16.838Z,30.45
2023-05-12T13:38:19.728Z,31.61
2023-05-12T13:42:22.361Z,32.06
2023-05-12T13:46:24.011Z,31.25
2023-05-12T13:50:25.510Z,31.17
2023-05-12T13:54:26.874Z,31.50
2023-05-12T13:58:30.759Z,31.19
2023-05-12T14:02:32.088Z,31.72
2023-05-12T14:06:33.554Z,31.71
2023-05-12T14:10:35.342Z,32.33
2023-05-12T14:14:36.755Z,32.23
2023-05-12T14:18:38.131Z,32.59
2023-05-12T14:22:39.541Z,31.65
2023-05-12T14:26:40.983Z,31.04
2023-05-12T14:30:43.506Z,30.52
2023-05-12T14:34:45.086Z,31.05
2023-05-12T14:38:48.726Z,31.44
2023-05-12T14:42:50.647Z,31.87
2023-05-12T14:46:51.986Z,31.28
2023-05-12T14:50:54.711Z,31.03
2023-05-12T14:54:56.175Z,30.49
2023-05-12T14:58:57.444Z,30.79
2023-05-12T15:02:58.876Z,30.81
2023-05-12T15:07:00.252Z,31.57
2023-05-12T15:11:01.656Z,31.26
2023-05-12T15:15:05.722Z,31.56
2023-05-12T15:19:07.611Z,31.26
2023-05-12T15:23:09.109Z,31.50
2023-05-12T15:27:10.560Z,30.88
2023-05-12T15:31:11.983Z,31.19
2023-05-12T15:35:13.512Z,30.52
2023-05-12T15:39:16.227Z,31.30
2023-05-12T15:43:18.144Z,31.23
2023-05-12T15:47:19.502Z,31.35
2023-05-12T15:51:20.961Z,31.15
2023-05-12T15:55:22.647Z,31.24
2023-05-12T15:59:24.279Z,31.20
2023-05-12T16:03:25.891Z,30.50
2023-05-12T16:07:29.461Z,30.74
2023-05-12T16:11:30.827Z,30.06
2023-05-12T16:15:32.200Z,30.02
2023-05-12T16:19:33.573Z,31.07
2023-05-12T16:23:35.091Z,30.76
2023-05-12T16:27:36.704Z,30.50
2023-05-12T16:31:38.575Z,30.27
2023-05-12T16:35:40.137Z,30.52
2023-05-12T16:39:41.423Z,29.55
2023-05-12T16:43:42.900Z,29.73
2023-05-12T16:47:44.355Z,29.18
2023-05-12T16:51:46.590Z,29.84
2023-05-12T16:55:47.918Z,28.68
2023-05-12T16:59:49.460Z,28.88
2023-05-12T17:03:51.012Z,29.18
2023-05-12T17:07:52.547Z,29.27
2023-05-12T17:11:53.902Z,29.09
2023-05-12T17:15:55.298Z,29.23
2023-05-12T17:19:56.907Z,28.50
2023-05-12T17:23:58.275Z,28.59
2023-05-12T17:27:59.732Z,28.17
2023-05-12T17:32:02.048Z,28.30
2023-05-12T17:36:12.515Z,26.32
2023-05-12T17:40:16.733Z,25.06
2023-05-12T17:44:18.119Z,26.46
2023-05-12T17:48:19.413Z,27.38
2023-05-12T17:52:20.738Z,27.88
2023-05-12T17:56:22.288Z,26.06
2023-05-12T18:00:23.674Z,26.42
2023-05-12T18:04:25.285Z,27.12
2023-05-12T18:08:27.162Z,27.18
2023-05-12T18:12:28.687Z,27.03
2023-05-12T18:16:30.052Z,25.51
2023-05-12T18:20:31.416Z,26.67
2023-05-12T18:24:32.762Z,27.01
2023-05-12T18:28:34.074Z,26.10
2023-05-12T18:32:35.771Z,26.62
2023-05-12T18:36:37.176Z,26.57
2023-05-12T18:40:38.781Z,26.35
2023-05-12T18:44:41.088Z,27.11
2023-05-12T18:48:42.453Z,26.89
2023-05-12T18:52:43.789Z,26.75
2023-05-12T18:56:47.133Z,27.13
2023-05-12T19:00:48.595Z,26.42
2023-05-12T19:04:50.020Z,26.89
2023-05-12T19:08:51.426Z,27.06
2023-05-12T19:12:53.218Z,26.24
2023-05-12T19:16:54.505Z,26.68
2023-05-12T19:20:55.915Z,26.16
2023-05-12T19:24:57.403Z,25.86
2023-05-12T19:29:00.353Z,26.56
2023-05-12T19:33:01.711Z,25.22
2023-05-12T19:37:03.281Z,25.89
2023-05-12T19:41:04.774Z,26.18
2023-05-12T19:45:06.970Z,25.23
2023-05-12T19:49:08.447Z,25.81
2023-05-12T19:53:09.744Z,26.13
2023-05-12T19:57:11.245Z,26.12
2023-05-12T20:01:12.600Z,25.38
2023-05-12T20:05:14.110Z,25.77
2023-05-12T20:09:15.510Z,26.42
2023-05-12T20:13:16.839Z,26.51
2023-05-12T20:17:18.397Z,25.80
2023-05-12T20:21:19.824Z,24.65
2023-05-12T20:25:21.305Z,24.86
2023-05-12T20:29:25.467Z,26.13
2023-05-12T20:33:26.846Z,26.24
2023-05-12T20:37:28.136Z,26.28
2023-05-12T20:41:29.500Z,26.35
2023-05-12T20:45:30.884Z,26.35
2023-05-12T20:49:32.499Z,26.33
2023-05-12T20:53:33.892Z,25.63
2023-05-12T20:57:35.724Z,26.16
2023-05-12T21:01:37.131Z,25.86
2023-05-12T21:05:39.027Z,25.24
2023-05-12T21:09:40.469Z,24.40
2023-05-12T21:13:42.564Z,25.53
2023-05-12T21:17:43.982Z,25.69
2023-05-12T21:21:45.695Z,26.06
2023-05-12T21:25:48.893Z,26.00
2023-05-12T21:29:50.202Z,25.78
2023-05-12T21:33:51.504Z,25.48
2023-05-12T21:37:52.956Z,25.63
2023-05-12T21:41:54.356Z,25.92
2023-05-12T21:45:55.801Z,26.07
2023-05-12T21:49:57.184Z,25.99
2023-05-12T21:53:59.304Z,25.99
2023-05-12T21:58:00.678Z,25.84
2023-05-12T22:02:02.096Z,25.64
2023-05-12T22:06:03.604Z,25.69
2023-05-12T22:10:05.987Z,25.93
2023-05-12T22:14:07.529Z,25.68
2023-05-12T22:18:08.897Z,25.82
2023-05-12T22:22:10.251Z,25.78
2023-05-12T22:26:12.033Z,25.79
2023-05-12T22:30:13.734Z,25.76
2023-05-12T22:34:15.460Z,25.70
2023-05-12T22:38:16.877Z,25.76
2023-05-12T22:42:18.237Z,25.67
2023-05-12T22:46:19.731Z,25.76
2023-05-12T22:50:21.548Z,25.71
2023-05-12T22:54:23.005Z,25.65
2023-05-12T22:58:25.374Z,25.59
2023-05-12T23:02:26.737Z,25.49
2023-05-12T23:06:28.109Z,25.41
2023-05-12T23:10:29.607Z,25.40
2023-05-12T23:14:31.015Z,25.41
2023-05-12T23:18:32.461Z,25.33
2023-05-12T23:22:36.744Z,25.27
2023-05-12T23:26:38.066Z,25.21
2023-05-12T23:30:39.409Z,25.23
2023-05-12T23:34:40.753Z,25.17
2023-05-12T23:38:42.134Z,25.15
2023-05-12T23:42:43.428Z,25.15
2023-05-12T23:46:44.759Z,25.15
2023-05-12T23:50:46.159Z,25.20
2023-05-12T23:54:47.635Z,25.24
2023-05-12T23:58:49.088Z,25.06
